Time;durP1;ratioP1;P1;durP2;ratioP2;P2;SDS_P1;SDS_P2;PMS_P1;PMS_P2;Temp;Humidity;BMP_temperature;BMP_pressure;BME280_temperature;BME280_humidity;BME280_pressure;Samples;Min_cycle;Max_cycle;Signal;HPM_P1;HPM_P2
2022/12/08 00:01:07;;;;;;;4.97;1.33;;;1.00;99.90;;;;;;5130998;27;20398;-47
2022/12/08 00:03:33;;;;;;;8.18;1.90;;;1.10;99.90;;;;;;5129345;27;20046;-47
2022/12/08 00:11:30;;;;;;;7.20;1.80;;;1.40;99.90;;;;;;5131481;27;20047;-47
2022/12/08 00:13:56;;;;;;;7.45;1.67;;;1.30;99.90;;;;;;5131754;27;20533;-45
2022/12/08 00:16:22;;;;;;;5.90;1.45;;;1.30;99.90;;;;;;5131393;27;20065;-47
2022/12/08 00:18:47;;;;;;;11.45;2.10;;;1.60;99.90;;;;;;5131550;27;20027;-47
2022/12/08 00:21:13;;;;;;;11.07;1.85;;;1.60;99.90;;;;;;5131294;27;20027;-47
2022/12/08 00:23:39;;;;;;;4.97;1.60;;;1.60;99.90;;;;;;5131344;27;20458;-47
2022/12/08 00:26:05;;;;;;;7.13;1.70;;;1.50;99.90;;;;;;5131245;27;20081;-44
2022/12/08 00:28:32;;;;;;;8.48;1.70;;;1.80;99.90;;;;;;5131269;27;20482;-44
2022/12/08 00:30:57;;;;;;;7.55;1.80;;;1.70;99.90;;;;;;5131425;27;20039;-44
2022/12/08 00:33:23;;;;;;;7.68;1.65;;;1.80;99.90;;;;;;5130723;27;20057;-45
2022/12/08 00:35:49;;;;;;;5.57;1.75;;;1.70;99.90;;;;;;5130679;27;20039;-46
2022/12/08 00:38:15;;;;;;;5.95;1.75;;;1.70;99.90;;;;;;5131287;27;20110;-47
2022/12/08 00:40:47;;;;;;;8.88;1.73;;;1.60;99.90;;;;;;5130796;28;20047;-44
2022/12/08 00:43:13;;;;;;;8.52;1.98;;;1.90;99.90;;;;;;5130486;28;20972;-46
2022/12/08 00:45:39;;;;;;;5.93;2.05;;;1.60;99.90;;;;;;5126812;28;20416;-46
2022/12/08 00:48:06;;;;;;;6.28;1.88;;;1.60;99.90;;;;;;5123195;28;20099;-46
2022/12/08 00:50:31;;;;;;;7.43;1.90;;;1.80;99.90;;;;;;5129957;28;20043;-49
2022/12/08 00:52:57;;;;;;;5.53;2.10;;;1.60;99.90;;;;;;5131148;28;20066;-49
2022/12/08 00:55:23;;;;;;;4.68;2.00;;;1.50;99.90;;;;;;5130591;28;20443;-47
2022/12/08 00:57:49;;;;;;;7.78;2.00;;;1.60;99.90;;;;;;5112624;28;20037;-46
2022/12/08 01:00:15;;;;;;;8.52;2.35;;;1.90;99.90;;;;;;5130907;28;20110;-46
2022/12/08 01:02:40;;;;;;;7.00;2.30;;;1.60;99.90;;;;;;5130675;28;20377;-46
2022/12/08 01:05:06;;;;;;;5.22;2.20;;;1.70;99.90;;;;;;5131045;28;20031;-47
2022/12/08 01:07:32;;;;;;;11.13;2.55;;;1.80;99.90;;;;;;5130796;28;20062;-46
2022/12/08 01:09:58;;;;;;;8.88;2.45;;;1.80;99.90;;;;;;5130289;28;20506;-49
2022/12/08 01:12:24;;;;;;;8.52;2.47;;;2.20;99.90;;;;;;5129954;28;20047;-45
2022/12/08 01:14:49;;;;;;;6.90;2.45;;;2.30;99.90;;;;;;5130398;28;20382;-46
2022/12/08 01:17:15;;;;;;;7.82;2.40;;;2.40;99.90;;;;;;5130419;28;20361;-46
2022/12/08 01:19:41;;;;;;;6.53;2.40;;;2.10;99.90;;;;;;5129318;28;20078;-46
2022/12/08 01:22:06;;;;;;;8.75;2.30;;;2.40;99.90;;;;;;5130697;28;20554;-47
2022/12/08 01:24:32;;;;;;;9.82;2.13;;;2.50;99.90;;;;;;5112508;28;20390;-47
2022/12/08 01:26:58;;;;;;;7.30;2.17;;;2.60;99.90;;;;;;5130258;28;20046;-47
2022/12/08 01:29:23;;;;;;;7.47;2.10;;;2.60;99.90;;;;;;5130545;28;20043;-45
2022/12/08 01:31:49;;;;;;;6.78;1.85;;;2.40;99.90;;;;;;5127870;28;20491;-45
2022/12/08 01:34:14;;;;;;;7.57;1.67;;;2.60;99.90;;;;;;5130143;28;20125;-44
2022/12/08 01:36:43;;;;;;;6.25;1.63;;;2.30;99.90;;;;;;5130339;28;20039;-45
2022/12/08 01:39:15;;;;;;;6.53;1.67;;;2.90;99.90;;;;;;5130600;28;20712;-47
2022/12/08 01:41:42;;;;;;;6.35;1.63;;;2.50;99.90;;;;;;5130581;28;20063;-47
2022/12/08 01:44:09;;;;;;;7.57;1.83;;;2.70;99.90;;;;;;5130370;28;20042;-47
2022/12/08 01:46:37;;;;;;;7.35;1.85;;;2.80;99.90;;;;;;5129946;27;20110;-45
2022/12/08 01:49:11;;;;;;;9.88;1.70;;;2.50;99.90;;;;;;5134262;27;20551;-48
2022/12/08 01:51:56;;;;;;;7.60;1.67;;;2.50;99.90;;;;;;5134223;27;20988;-47
2022/12/08 01:54:27;;;;;;;5.82;1.88;;;2.60;99.90;;;;;;5133942;27;20118;-49
2022/12/08 01:57:10;;;;;;;6.00;2.15;;;2.70;99.90;;;;;;5134049;27;20055;-48
2022/12/08 01:59:41;;;;;;;5.40;2.42;;;2.40;99.90;;;;;;5134083;27;20050;-45
2022/12/08 02:02:09;;;;;;;9.25;2.47;;;2.50;99.90;;;;;;5133698;27;20031;-46
2022/12/08 02:04:35;;;;;;;7.25;2.60;;;2.70;99.90;;;;;;5132266;27;20155;-48
2022/12/08 02:07:01;;;;;;;6.80;3.20;;;2.30;99.90;;;;;;5115501;27;20542;-48
2022/12/08 02:09:27;;;;;;;7.18;3.13;;;2.60;99.90;;;;;;5133946;27;20382;-45
2022/12/08 02:11:55;;;;;;;11.63;3.60;;;2.40;99.90;;;;;;5133642;27;20041;-49
2022/12/08 02:14:22;;;;;;;9.07;3.40;;;2.30;99.90;;;;;;5133864;27;20087;-47
2022/12/08 02:16:51;;;;;;;9.88;4.40;;;2.40;99.90;;;;;;5131494;27;20040;-47
2022/12/08 02:19:31;;;;;;;11.60;4.00;;;2.70;99.90;;;;;;5133363;27;20168;-46
2022/12/08 02:22:03;;;;;;;10.13;4.55;;;2.50;99.90;;;;;;5132293;27;20080;-47
2022/12/08 02:24:28;;;;;;;19.38;4.78;;;2.80;99.90;;;;;;5133245;27;20550;-47
2022/12/08 02:27:13;;;;;;;8.32;4.20;;;2.80;99.90;;;;;;5133306;27;20051;-49
2022/12/08 02:29:53;;;;;;;8.75;4.22;;;2.60;99.90;;;;;;5132641;27;20046;-45
2022/12/08 02:32:37;;;;;;;8.43;3.08;;;2.60;99.90;;;;;;5133470;27;20039;-46
2022/12/08 02:35:15;;;;;;;9.52;3.67;;;2.80;99.90;;;;;;5133574;27;20478;-46
2022/12/08 02:37:49;;;;;;;10.57;4.13;;;3.00;99.90;;;;;;5133290;27;20084;-44
2022/12/08 02:40:29;;;;;;;8.57;3.88;;;3.00;99.90;;;;;;5133508;27;20027;-44
2022/12/08 02:43:03;;;;;;;9.07;4.03;;;2.80;99.90;;;;;;5133217;27;20055;-46
2022/12/08 02:45:40;;;;;;;8.33;3.87;;;3.10;99.90;;;;;;5133233;27;20027;-47
2022/12/08 02:48:08;;;;;;;7.60;3.30;;;2.80;99.90;;;;;;5111042;28;20529;-47
2022/12/08 02:50:34;;;;;;;8.52;3.20;;;3.00;99.90;;;;;;5112517;28;20479;-49
2022/12/08 02:53:01;;;;;;;14.38;3.70;;;2.70;99.90;;;;;;5111073;28;20039;-45
2022/12/08 02:55:35;;;;;;;9.02;3.88;;;3.00;99.90;;;;;;5112528;28;20044;-44
2022/12/08 02:58:25;;;;;;;11.95;3.40;;;3.00;99.90;;;;;;5110426;28;20498;-46
2022/12/08 03:01:09;;;;;;;8.93;2.90;;;2.80;99.90;;;;;;5110997;28;20115;-45
2022/12/08 03:04:01;;;;;;;8.40;4.15;;;2.90;99.90;;;;;;5110351;28;20039;-45
2022/12/08 03:06:44;;;;;;;10.65;4.07;;;2.70;99.90;;;;;;5111627;28;20073;-46
2022/12/08 03:09:19;;;;;;;9.37;3.90;;;3.10;99.90;;;;;;5111550;28;20039;-44
2022/12/08 03:12:04;;;;;;;15.68;4.53;;;3.00;99.90;;;;;;5112101;28;20054;-45
2022/12/08 03:14:31;;;;;;;9.20;4.57;;;2.70;99.90;;;;;;5110005;28;20039;-44
2022/12/08 03:16:58;;;;;;;12.15;4.70;;;2.70;99.90;;;;;;5111924;28;20043;-45
2022/12/08 03:19:28;;;;;;;9.77;3.95;;;2.50;99.90;;;;;;5111920;28;20036;-45
2022/12/08 03:22:01;;;;;;;10.10;4.00;;;2.90;99.90;;;;;;5111994;28;20031;-45
2022/12/08 03:24:32;;;;;;;7.13;3.67;;;2.70;99.90;;;;;;5112025;28;20031;-44
2022/12/08 03:27:17;;;;;;;11.38;4.22;;;2.60;99.90;;;;;;5111368;28;20042;-44
2022/12/08 03:29:45;;;;;;;10.18;3.40;;;2.80;99.90;;;;;;5109792;28;20485;-44
2022/12/08 03:32:34;;;;;;;9.40;3.70;;;2.30;99.90;;;;;;5111718;28;20046;-44
2022/12/08 03:35:07;;;;;;;10.80;3.28;;;2.70;99.90;;;;;;5080591;28;20445;-46
2022/12/08 03:37:35;;;;;;;6.78;3.05;;;2.70;99.90;;;;;;5111534;28;20047;-43
2022/12/08 03:40:02;;;;;;;8.25;2.80;;;2.80;99.90;;;;;;5110343;28;20027;-46
2022/12/08 03:42:27;;;;;;;6.03;2.40;;;2.50;99.90;;;;;;5111503;28;20118;-44
2022/12/08 03:44:53;;;;;;;6.25;2.15;;;2.60;99.90;;;;;;5111335;28;20122;-45
2022/12/08 03:47:19;;;;;;;3.92;1.67;;;2.40;99.90;;;;;;5117153;27;20047;-44
2022/12/08 03:49:44;;;;;;;4.05;1.20;;;2.80;99.90;;;;;;5131589;27;20045;-46
2022/12/08 03:52:11;;;;;;;7.40;1.30;;;2.30;99.90;;;;;;5131300;27;20045;-44
2022/12/08 03:54:37;;;;;;;5.20;1.05;;;2.80;99.90;;;;;;5131430;27;20031;-45
2022/12/08 03:57:02;;;;;;;3.33;0.80;;;2.80;99.90;;;;;;5131690;27;20035;-45
2022/12/08 03:59:28;;;;;;;7.60;1.10;;;2.40;99.90;;;;;;5113235;27;20092;-46
2022/12/08 04:01:54;;;;;;;3.58;1.05;;;2.80;99.90;;;;;;5131468;27;20537;-48
2022/12/08 04:04:19;;;;;;;7.30;0.90;;;2.70;99.90;;;;;;5131324;27;20063;-46
2022/12/08 04:06:46;;;;;;;6.65;1.35;;;2.30;99.90;;;;;;5131351;27;20047;-47
2022/12/08 04:09:11;;;;;;;9.32;1.90;;;2.80;99.90;;;;;;5131169;27;20062;-49
2022/12/08 04:11:37;;;;;;;7.15;1.80;;;2.70;99.90;;;;;;5131038;27;20434;-47
2022/12/08 04:14:03;;;;;;;6.57;1.85;;;2.30;99.90;;;;;;5131294;27;20038;-44
2022/12/08 04:16:29;;;;;;;3.53;1.52;;;2.30;99.90;;;;;;5130976;27;20066;-46
2022/12/08 04:18:54;;;;;;;6.93;2.20;;;2.30;99.90;;;;;;5131379;27;20138;-44
2022/12/08 04:21:20;;;;;;;5.35;2.58;;;2.30;99.90;;;;;;5131455;27;20115;-47
2022/12/08 04:23:46;;;;;;;6.95;2.45;;;2.50;99.90;;;;;;5131148;27;20034;-44
2022/12/08 04:26:12;;;;;;;8.40;2.83;;;2.80;99.90;;;;;;5112506;28;20050;-45
2022/12/08 04:28:38;;;;;;;6.78;2.75;;;2.30;99.90;;;;;;5131319;27;20035;-45
2022/12/08 04:31:04;;;;;;;7.72;2.80;;;2.70;99.90;;;;;;5131386;27;20030;-44
2022/12/08 04:33:29;;;;;;;11.02;3.00;;;2.40;99.90;;;;;;5128641;27;20039;-46
2022/12/08 04:35:55;;;;;;;7.22;2.90;;;2.80;99.90;;;;;;5131354;27;20039;-44
2022/12/08 04:38:21;;;;;;;7.55;3.15;;;2.80;99.90;;;;;;5131293;27;20497;-46
2022/12/08 04:40:47;;;;;;;10.88;3.47;;;2.40;99.90;;;;;;5131161;27;20031;-45
2022/12/08 04:43:12;;;;;;;5.32;2.80;;;2.90;99.90;;;;;;5130951;28;20035;-44
2022/12/08 04:45:39;;;;;;;7.55;2.53;;;2.40;99.90;;;;;;5131188;28;20092;-45
2022/12/08 04:48:06;;;;;;;5.30;2.10;;;2.30;99.90;;;;;;5130575;28;20066;-43
2022/12/08 04:50:32;;;;;;;7.00;2.60;;;2.30;99.90;;;;;;5129366;28;20047;-46
2022/12/08 04:52:57;;;;;;;7.50;2.30;;;2.70;99.90;;;;;;5131136;28;20502;-46
2022/12/08 04:55:23;;;;;;;6.05;2.08;;;2.60;99.90;;;;;;5130962;28;20046;-43
2022/12/08 04:57:49;;;;;;;6.38;1.60;;;2.60;99.90;;;;;;5129688;28;20084;-46
2022/12/08 05:00:15;;;;;;;3.33;1.27;;;2.40;99.90;;;;;;5130952;28;20420;-45
2022/12/08 05:02:41;;;;;;;7.07;1.50;;;2.40;99.90;;;;;;5131037;28;20079;-45
2022/12/08 05:05:07;;;;;;;5.07;1.33;;;2.30;99.90;;;;;;5130368;28;20035;-46
2022/12/08 05:07:33;;;;;;;3.13;1.20;;;2.70;99.90;;;;;;5130676;28;20071;-49
2022/12/08 05:09:58;;;;;;;2.92;0.65;;;2.70;99.90;;;;;;5131056;28;20071;-46
2022/12/08 05:12:24;;;;;;;2.47;0.60;;;2.30;99.90;;;;;;5112104;28;20397;-44
2022/12/08 05:14:50;;;;;;;3.22;0.50;;;2.70;99.90;;;;;;5130912;28;20035;-46
2022/12/08 05:17:17;;;;;;;2.20;0.63;;;2.50;99.90;;;;;;5128479;28;20074;-47
2022/12/08 05:19:43;;;;;;;3.60;0.70;;;2.30;99.90;;;;;;5130643;28;20475;-43
2022/12/08 05:22:08;;;;;;;2.65;0.50;;;2.70;99.90;;;;;;5133635;27;20386;-44
2022/12/08 05:24:34;;;;;;;2.85;0.65;;;2.40;99.90;;;;;;5134638;27;20028;-44
2022/12/08 05:27:00;;;;;;;2.85;0.50;;;2.50;99.90;;;;;;5116070;27;20132;-44
2022/12/08 05:29:26;;;;;;;2.85;0.65;;;2.60;99.90;;;;;;5134635;27;20076;-46
2022/12/08 05:31:52;;;;;;;2.65;0.60;;;2.60;99.90;;;;;;5116354;27;20074;-45
2022/12/08 05:34:18;;;;;;;4.28;0.50;;;2.50;99.90;;;;;;5115819;27;20136;-43
2022/12/08 05:36:44;;;;;;;2.28;0.70;;;2.70;99.90;;;;;;5115781;27;20049;-44
2022/12/08 05:39:13;;;;;;;2.75;0.50;;;2.50;99.90;;;;;;5131705;27;20027;-46
2022/12/08 05:41:39;;;;;;;2.20;0.70;;;2.70;99.90;;;;;;5115682;27;20295;-44
2022/12/08 05:44:05;;;;;;;2.88;0.60;;;2.50;99.90;;;;;;5134443;27;20091;-46
2022/12/08 05:46:31;;;;;;;1.73;0.50;;;2.10;99.90;;;;;;5134486;27;20153;-47
2022/12/08 05:48:59;;;;;;;1.80;0.57;;;2.10;99.90;;;;;;5133148;27;20080;-47
2022/12/08 05:51:24;;;;;;;4.38;0.60;;;2.60;99.90;;;;;;5133580;27;20039;-46
2022/12/08 05:53:51;;;;;;;2.15;0.60;;;2.50;99.90;;;;;;5133905;27;20054;-45
2022/12/08 05:56:17;;;;;;;2.03;0.65;;;2.10;99.90;;;;;;5134338;27;20060;-50
2022/12/08 05:58:44;;;;;;;3.60;0.57;;;2.20;99.90;;;;;;5115256;27;20398;-45
2022/12/08 06:01:23;;;;;;;5.28;0.60;;;2.50;99.90;;;;;;5133299;27;20168;-47
2022/12/08 06:03:49;;;;;;;4.03;0.95;;;2.50;99.90;;;;;;5131729;27;20306;-45
2022/12/08 06:06:15;;;;;;;2.65;0.50;;;2.40;99.90;;;;;;5133632;27;20059;-45
2022/12/08 06:08:40;;;;;;;3.70;1.10;;;2.20;99.90;;;;;;5132295;27;20077;-46
2022/12/08 06:11:06;;;;;;;3.15;0.63;;;2.10;99.90;;;;;;5133582;27;20122;-46
2022/12/08 06:13:32;;;;;;;2.55;0.70;;;2.40;99.90;;;;;;5133604;27;20589;-45
2022/12/08 06:16:05;;;;;;;3.03;1.40;;;2.40;99.90;;;;;;5133459;27;20035;-47
2022/12/08 06:18:31;;;;;;;3.30;0.85;;;2.40;99.90;;;;;;5133374;27;20038;-46
2022/12/08 06:21:07;;;;;;;3.22;0.60;;;2.10;99.90;;;;;;5133623;27;20046;-44
2022/12/08 06:23:34;;;;;;;4.88;0.90;;;2.40;99.90;;;;;;5115352;27;20478;-45
2022/12/08 06:26:05;;;;;;;2.58;0.63;;;2.40;99.90;;;;;;5114578;27;20072;-47
2022/12/08 06:28:31;;;;;;;2.33;0.60;;;2.60;99.90;;;;;;5133627;27;20537;-48
2022/12/08 06:30:58;;;;;;;5.95;0.60;;;2.50;99.90;;;;;;5131348;27;20043;-44
2022/12/08 06:33:25;;;;;;;1.65;0.50;;;2.40;99.90;;;;;;5132067;27;20073;-45
2022/12/08 06:35:51;;;;;;;1.13;0.40;;;2.10;99.90;;;;;;5133218;27;20070;-46
2022/12/08 06:38:17;;;;;;;3.20;0.70;;;2.20;99.90;;;;;;5132950;27;20050;-47
2022/12/08 06:40:43;;;;;;;3.83;0.50;;;2.60;99.90;;;;;;5133323;27;20031;-44
2022/12/08 06:43:08;;;;;;;5.05;0.70;;;2.50;99.90;;;;;;5132896;27;20084;-44
2022/12/08 06:45:34;;;;;;;3.90;0.60;;;2.30;99.90;;;;;;5095817;27;20122;-44
2022/12/08 06:48:01;;;;;;;3.33;0.80;;;2.60;99.90;;;;;;5129829;27;20043;-45
2022/12/08 06:50:27;;;;;;;1.33;0.50;;;2.20;99.90;;;;;;5132736;27;20034;-45
2022/12/08 06:52:53;;;;;;;3.92;0.52;;;2.10;99.90;;;;;;5132958;27;20035;-44
2022/12/08 06:55:19;;;;;;;5.32;0.80;;;2.30;99.90;;;;;;5132672;27;20378;-44
2022/12/08 06:57:45;;;;;;;2.13;0.50;;;2.60;99.90;;;;;;5132890;27;20471;-43
2022/12/08 07:00:11;;;;;;;2.45;0.50;;;2.20;99.90;;;;;;5132348;27;20035;-45
2022/12/08 07:02:37;;;;;;;2.40;0.50;;;2.40;99.90;;;;;;5132107;27;20035;-46
2022/12/08 07:05:03;;;;;;;3.72;0.40;;;2.60;99.90;;;;;;5132525;27;20027;-45
2022/12/08 07:07:29;;;;;;;2.50;0.50;;;2.70;99.90;;;;;;5132336;27;20042;-44
2022/12/08 07:09:54;;;;;;;4.00;0.60;;;2.50;99.90;;;;;;5132790;27;20096;-46
2022/12/08 07:12:20;;;;;;;4.45;1.08;;;2.40;99.90;;;;;;5114169;27;20031;-44
2022/12/08 07:14:45;;;;;;;2.10;0.50;;;2.50;99.90;;;;;;5131907;27;20092;-46
2022/12/08 07:17:12;;;;;;;3.83;0.47;;;2.20;99.90;;;;;;5132031;27;20042;-44
2022/12/08 07:19:38;;;;;;;2.22;0.43;;;2.70;99.90;;;;;;5132371;27;20113;-46
2022/12/08 07:22:03;;;;;;;2.50;0.50;;;2.50;99.90;;;;;;5132598;27;20066;-45
2022/12/08 07:24:29;;;;;;;3.88;0.40;;;2.50;99.90;;;;;;5132098;27;20027;-45
2022/12/08 07:26:55;;;;;;;2.60;0.50;;;2.40;99.90;;;;;;5113822;27;20595;-44
2022/12/08 07:29:20;;;;;;;1.95;0.60;;;2.50;99.90;;;;;;5132352;27;20504;-46
2022/12/08 07:31:46;;;;;;;3.40;0.50;;;2.30;99.90;;;;;;5129702;27;20081;-48
2022/12/08 07:34:12;;;;;;;4.22;0.63;;;2.60;99.90;;;;;;5131883;27;20067;-47
2022/12/08 07:36:38;;;;;;;1.55;0.52;;;2.50;99.90;;;;;;5131747;27;20043;-47
2022/12/08 07:39:03;;;;;;;1.48;0.52;;;2.50;99.90;;;;;;5113906;27;20099;-46
2022/12/08 07:41:29;;;;;;;2.90;0.57;;;2.60;99.90;;;;;;5131594;27;20035;-44
2022/12/08 07:43:55;;;;;;;4.85;0.70;;;2.30;99.90;;;;;;5131794;27;20039;-44
2022/12/08 07:46:23;;;;;;;2.33;0.63;;;2.10;99.90;;;;;;5131081;27;20131;-44
2022/12/08 07:48:50;;;;;;;3.75;0.70;;;2.10;99.90;;;;;;5131727;27;20124;-43
2022/12/08 07:51:16;;;;;;;5.53;0.68;;;3.20;99.90;;;;;;5131771;27;20051;-47
2022/12/08 07:53:44;;;;;;;4.22;0.80;;;2.40;99.90;;;;;;5131937;27;20035;-44
2022/12/08 07:56:11;;;;;;;2.22;0.65;;;2.10;99.90;;;;;;5131500;27;20054;-45
2022/12/08 07:58:37;;;;;;;1.90;1.13;;;2.10;99.90;;;;;;5131506;27;20035;-44
2022/12/08 08:01:04;;;;;;;2.30;0.70;;;2.30;99.90;;;;;;5131994;27;20084;-46
2022/12/08 08:03:30;;;;;;;2.17;0.80;;;2.10;99.90;;;;;;5131159;27;20070;-45
2022/12/08 08:06:02;;;;;;;3.13;1.00;;;2.10;99.90;;;;;;5113403;27;20046;-48
2022/12/08 08:08:28;;;;;;;3.65;1.27;;;2.10;99.90;;;;;;5131683;27;20550;-45
2022/12/08 08:10:54;;;;;;;7.18;1.58;;;2.10;99.90;;;;;;5131258;27;20043;-48
2022/12/08 08:13:19;;;;;;;2.55;1.05;;;2.10;99.90;;;;;;5131208;27;20088;-47
2022/12/08 08:15:45;;;;;;;4.90;1.40;;;2.20;99.90;;;;;;5110064;27;20050;-45
2022/12/08 08:18:10;;;;;;;3.17;1.40;;;2.10;99.90;;;;;;5129228;27;20124;-48
2022/12/08 08:20:36;;;;;;;3.28;1.50;;;2.40;99.90;;;;;;5125324;27;20038;-45
2022/12/08 08:23:02;;;;;;;4.07;2.00;;;2.50;99.90;;;;;;5123801;27;20083;-45
2022/12/08 08:25:28;;;;;;;4.82;2.42;;;2.50;99.90;;;;;;5129073;27;20027;-44
2022/12/08 08:27:53;;;;;;;8.02;2.55;;;2.10;99.90;;;;;;5123683;27;20035;-47
2022/12/08 08:30:19;;;;;;;7.88;3.33;;;2.20;99.90;;;;;;5130117;27;20589;-48
2022/12/08 08:32:45;;;;;;;7.65;3.13;;;2.30;99.90;;;;;;5130023;27;20076;-45
2022/12/08 08:35:11;;;;;;;7.75;3.40;;;2.30;99.90;;;;;;5111514;28;20046;-45
2022/12/08 08:37:37;;;;;;;8.00;4.13;;;2.30;99.90;;;;;;5122063;27;20680;-45
2022/12/08 08:40:03;;;;;;;9.40;4.03;;;2.20;99.90;;;;;;5122018;27;20076;-45
2022/12/08 08:42:29;;;;;;;8.35;4.43;;;2.50;99.90;;;;;;5121578;27;20038;-47
2022/12/08 08:44:54;;;;;;;7.78;4.50;;;2.30;99.90;;;;;;5121811;28;20031;-43
2022/12/08 08:47:20;;;;;;;10.55;5.22;;;2.40;99.90;;;;;;5102410;28;20047;-46
2022/12/08 08:49:46;;;;;;;9.23;4.50;;;2.30;99.90;;;;;;5121330;28;20406;-43
2022/12/08 08:52:11;;;;;;;8.75;4.57;;;2.50;99.90;;;;;;5111920;28;20165;-43
2022/12/08 08:54:37;;;;;;;9.63;4.32;;;2.60;99.90;;;;;;5121390;28;20035;-43
2022/12/08 08:57:03;;;;;;;10.18;4.82;;;2.50;99.90;;;;;;5123640;27;20050;-44
2022/12/08 08:59:29;;;;;;;13.40;4.90;;;2.60;99.90;;;;;;5126581;27;20046;-45
2022/12/08 09:01:54;;;;;;;11.68;4.97;;;2.50;99.90;;;;;;5125907;27;20054;-44
2022/12/08 09:04:21;;;;;;;9.07;4.05;;;2.40;99.90;;;;;;5124609;27;20039;-42
2022/12/08 09:06:48;;;;;;;9.35;4.05;;;2.60;99.90;;;;;;5126432;27;20386;-44
2022/12/08 09:09:15;;;;;;;9.77;3.85;;;2.50;99.90;;;;;;5122534;27;20039;-44
2022/12/08 09:11:41;;;;;;;10.15;3.88;;;2.70;99.90;;;;;;5124033;27;20043;-43
2022/12/08 09:14:09;;;;;;;7.10;3.03;;;2.50;99.90;;;;;;5122582;27;20040;-44
2022/12/08 09:16:35;;;;;;;9.50;3.70;;;2.50;99.90;;;;;;5122410;27;20622;-44
2022/12/08 09:19:01;;;;;;;8.10;3.20;;;2.60;99.90;;;;;;5101954;27;20036;-44
2022/12/08 09:21:26;;;;;;;8.65;3.00;;;2.60;99.90;;;;;;5121465;27;20039;-46
2022/12/08 09:23:55;;;;;;;8.40;2.55;;;2.60;99.90;;;;;;5102676;27;20035;-46
2022/12/08 09:26:22;;;;;;;10.80;2.78;;;2.50;99.90;;;;;;5104009;27;20046;-48
2022/12/08 09:28:52;;;;;;;5.63;2.50;;;2.40;99.90;;;;;;5122696;27;20070;-46
2022/12/08 09:31:19;;;;;;;6.47;2.42;;;2.80;99.90;;;;;;5123976;27;20043;-45
2022/12/08 09:33:46;;;;;;;7.00;2.10;;;2.60;99.90;;;;;;5121997;27;20091;-45
2022/12/08 09:36:12;;;;;;;6.78;2.17;;;3.00;99.90;;;;;;5121856;27;20043;-45
2022/12/08 09:38:39;;;;;;;5.80;2.25;;;2.90;99.90;;;;;;5123005;27;20039;-48
2022/12/08 09:41:21;;;;;;;6.30;1.95;;;2.70;99.90;;;;;;5122353;27;20027;-45
2022/12/08 09:44:30;;;;;;;4.47;1.75;;;2.50;99.90;;;;;;5120648;27;20389;-46
2022/12/08 09:46:59;;;;;;;8.40;1.80;;;2.50;99.90;;;;;;5045516;27;20123;-50
2022/12/08 09:49:43;;;;;;;4.63;1.90;;;3.00;99.90;;;;;;5119743;27;20112;-47
2022/12/08 09:52:24;;;;;;;4.07;1.85;;;3.00;99.90;;;;;;5124064;27;20031;-44
2022/12/08 09:54:50;;;;;;;5.97;1.58;;;2.80;99.90;;;;;;5115628;27;20043;-46
2022/12/08 09:57:19;;;;;;;5.78;1.85;;;2.70;99.90;;;;;;5129401;27;20145;-45
2022/12/08 09:59:51;;;;;;;3.80;1.77;;;2.80;99.90;;;;;;5125464;27;20102;-44
2022/12/08 10:02:22;;;;;;;5.65;2.10;;;2.70;99.90;;;;;;5125721;27;20046;-45
2022/12/08 10:04:48;;;;;;;9.15;2.10;;;2.70;99.90;;;;;;5125208;27;20031;-47
2022/12/08 10:07:43;;;;;;;5.32;2.10;;;3.20;99.90;;;;;;5133104;27;20110;-47
2022/12/08 10:10:11;;;;;;;7.45;2.10;;;3.20;99.90;;;;;;5132444;27;20508;-46
2022/12/08 10:12:57;;;;;;;6.55;2.13;;;3.20;99.90;;;;;;5133167;27;20039;-46
2022/12/08 10:15:48;;;;;;;5.38;2.20;;;2.70;99.90;;;;;;5132884;27;20039;-45
2022/12/08 10:18:28;;;;;;;6.20;2.65;;;3.20;99.90;;;;;;5133891;27;20046;-44
2022/12/08 10:21:03;;;;;;;8.20;2.35;;;3.20;99.90;;;;;;5132108;27;20148;-44
2022/12/08 10:23:35;;;;;;;5.38;2.67;;;3.20;99.90;;;;;;5132348;27;20057;-45
2022/12/08 10:26:10;;;;;;;6.88;3.15;;;3.40;99.90;;;;;;5133674;27;20087;-45
2022/12/08 10:28:35;;;;;;;9.98;3.20;;;3.40;99.90;;;;;;5133387;27;20047;-45
2022/12/08 10:31:01;;;;;;;8.52;2.92;;;2.90;99.90;;;;;;5115096;27;20038;-47
2022/12/08 10:33:28;;;;;;;7.22;2.78;;;2.90;99.90;;;;;;5132083;27;20042;-45
2022/12/08 10:35:57;;;;;;;8.73;3.28;;;3.40;99.90;;;;;;5133466;27;20130;-45
2022/12/08 10:38:29;;;;;;;10.80;3.40;;;3.50;99.90;;;;;;5133390;27;20059;-45
2022/12/08 10:41:03;;;;;;;7.95;3.75;;;3.40;99.90;;;;;;5133185;27;20050;-46
2022/12/08 10:43:30;;;;;;;6.53;3.60;;;3.00;99.90;;;;;;5132910;27;20049;-49
2022/12/08 10:46:10;;;;;;;7.28;3.15;;;3.20;99.90;;;;;;5133294;27;20494;-46
2022/12/08 10:48:35;;;;;;;10.15;4.07;;;3.40;99.90;;;;;;5132604;27;20450;-44
2022/12/08 10:51:04;;;;;;;9.13;3.78;;;3.60;99.90;;;;;;5133081;27;20050;-44
2022/12/08 10:53:44;;;;;;;10.38;4.18;;;3.10;99.90;;;;;;5114358;27;20089;-44
2022/12/08 10:56:16;;;;;;;7.13;3.85;;;3.10;99.90;;;;;;5131718;27;20066;-46
2022/12/08 10:58:45;;;;;;;6.68;3.65;;;3.00;99.90;;;;;;5132741;27;20027;-44
2022/12/08 11:01:19;;;;;;;11.60;3.97;;;3.10;99.90;;;;;;5133030;27;20937;-45
2022/12/08 11:03:58;;;;;;;8.80;4.68;;;3.10;99.90;;;;;;5132361;27;20287;-45
2022/12/08 11:06:37;;;;;;;8.20;4.00;;;3.00;99.90;;;;;;5132865;27;20035;-44
2022/12/08 11:09:26;;;;;;;8.73;3.70;;;3.10;99.90;;;;;;5131438;27;20035;-45
2022/12/08 11:11:53;;;;;;;9.05;4.32;;;3.00;99.90;;;;;;5113754;27;20501;-45
2022/12/08 11:14:27;;;;;;;10.75;4.57;;;3.20;99.90;;;;;;5132423;27;20112;-47
2022/12/08 11:16:54;;;;;;;;;;;3.60;99.90;;;;;;5132964;27;20079;-49
2022/12/08 11:19:24;;;;;;;9.38;4.03;;;3.20;99.90;;;;;;5113520;27;20009;-47
2022/12/08 11:21:50;;;;;;;7.75;4.35;;;3.70;99.90;;;;;;5132246;27;20063;-48
2022/12/08 11:24:23;;;;;;;12.48;4.93;;;3.30;99.90;;;;;;5131835;27;20071;-45
2022/12/08 11:27:01;;;;;;;8.93;4.03;;;3.70;99.90;;;;;;5132511;27;20470;-45
2022/12/08 11:29:32;;;;;;;8.20;3.60;;;3.60;99.90;;;;;;5113809;27;20051;-47
2022/12/08 11:32:03;;;;;;;6.78;3.47;;;3.90;99.90;;;;;;5113897;27;20539;-45
2022/12/08 11:34:37;;;;;;;7.50;3.33;;;4.10;99.90;;;;;;5131967;27;20485;-47
2022/12/08 11:37:07;;;;;;;7.97;3.17;;;4.00;99.90;;;;;;5132450;27;20045;-48
2022/12/08 11:39:35;;;;;;;6.75;3.25;;;3.80;99.90;;;;;;5132323;27;20039;-47
2022/12/08 11:42:06;;;;;;;7.82;2.70;;;3.90;99.90;;;;;;5131780;27;20106;-45
2022/12/08 11:44:46;;;;;;;5.05;2.22;;;4.20;99.90;;;;;;5132010;27;20088;-44
2022/12/08 11:47:36;;;;;;;5.22;2.40;;;4.10;99.90;;;;;;5131871;27;20057;-51
2022/12/08 11:50:14;;;;;;;9.00;2.88;;;4.10;99.90;;;;;;5132047;27;20501;-47
2022/12/08 11:52:45;;;;;;;4.38;2.63;;;4.30;99.90;;;;;;5131898;27;20715;-46
2022/12/08 11:55:30;;;;;;;4.18;2.25;;;4.50;99.90;;;;;;5113359;27;20031;-46
2022/12/08 11:58:01;;;;;;;;;;;4.70;99.90;;;;;;5132111;27;20509;-46
2022/12/08 12:00:27;;;;;;;4.78;1.77;;;5.00;99.90;;;;;;5131586;27;19923;-50
2022/12/08 12:03:04;;;;;;;4.65;1.92;;;5.20;99.90;;;;;;5131622;27;20072;-50
2022/12/08 12:06:17;;;;;;;3.63;1.40;;;5.70;99.90;;;;;;5130284;27;20035;-51
2022/12/08 12:09:14;;;;;;;4.13;1.30;;;5.70;99.90;;;;;;5130811;27;20482;-47
2022/12/08 12:15:00;;;;;;;3.30;1.30;;;5.70;99.90;;;;;;5112806;27;20064;-47
2022/12/08 12:17:44;;;;;;;3.10;1.08;;;5.70;99.90;;;;;;5131383;27;20043;-46
2022/12/08 12:20:30;;;;;;;4.20;1.25;;;5.80;99.90;;;;;;5131117;27;20027;-48
2022/12/08 12:23:03;;;;;;;3.50;1.30;;;5.90;99.90;;;;;;5131539;27;20052;-47
2022/12/08 12:25:30;;;;;;;3.20;1.17;;;5.70;99.90;;;;;;5131240;27;20071;-49
2022/12/08 12:28:01;;;;;;;4.40;1.55;;;5.50;99.90;;;;;;5112814;27;20047;-47
2022/12/08 12:30:47;;;;;;;4.88;1.40;;;5.40;99.90;;;;;;5129720;27;20039;-49
2022/12/08 12:33:16;;;;;;;5.55;1.42;;;5.30;99.90;;;;;;5131234;27;20505;-46
2022/12/08 12:35:46;;;;;;;5.88;1.83;;;5.50;99.90;;;;;;5112940;28;20039;-47
2022/12/08 12:41:11;;;;;;;6.20;2.03;;;4.30;99.90;;;;;;5130516;27;20072;-49
2022/12/08 12:43:38;;;;;;;5.53;2.33;;;5.00;99.90;;;;;;5131025;27;20043;-47
2022/12/08 12:46:21;;;;;;;4.22;1.75;;;4.90;99.90;;;;;;5131219;28;20039;-45
2022/12/08 12:48:48;;;;;;;4.37;1.93;;;5.00;99.90;;;;;;5130706;28;20063;-49
2022/12/08 12:51:44;;;;;;;6.88;2.13;;;5.10;99.90;;;;;;5130709;28;20277;-45
2022/12/08 12:54:24;;;;;;;5.25;2.10;;;5.00;99.90;;;;;;5116088;28;20082;-48
2022/12/08 12:56:53;;;;;;;5.88;1.90;;;5.00;99.90;;;;;;5130727;28;20042;-49
2022/12/08 12:59:44;;;;;;;5.82;1.95;;;4.90;99.90;;;;;;5129913;28;20096;-48
2022/12/08 13:02:38;;;;;;;6.03;1.88;;;4.90;99.90;;;;;;5130398;28;20046;-48
2022/12/08 13:05:25;;;;;;;3.88;1.63;;;5.10;99.90;;;;;;5104130;28;20051;-47
2022/12/08 13:08:05;;;;;;;3.30;1.63;;;5.00;99.90;;;;;;5112493;28;20168;-45
2022/12/08 13:10:39;;;;;;;3.88;1.52;;;4.80;99.90;;;;;;5129757;28;20510;-45
2022/12/08 13:13:16;;;;;;;3.45;1.55;;;4.80;99.90;;;;;;5130828;28;20043;-45
2022/12/08 13:15:45;;;;;;;3.70;1.45;;;4.80;99.90;;;;;;5130552;28;20039;-50
2022/12/08 13:18:19;;;;;;;3.83;1.70;;;4.80;99.90;;;;;;5129818;28;20043;-45
2022/12/08 13:21:02;;;;;;;4.15;1.30;;;5.10;99.90;;;;;;5130201;28;20541;-46
2022/12/08 13:24:07;;;;;;;4.68;1.67;;;5.60;99.90;;;;;;5130871;28;20382;-45